createdAt,value
2018-09-11T01:00:32.078Z,9.60
2018-09-11T01:01:32.020Z,7.30
2018-09-11T01:02:32.009Z,8.60
2018-09-11T01:03:32.053Z,7.10
2018-09-11T01:04:31.985Z,7.50
2018-09-11T01:05:31.975Z,8.90
2018-09-11T01:06:32.006Z,7.90
2018-09-11T01:07:31.953Z,7.00
2018-09-11T01:08:31.992Z,6.80
2018-09-11T01:09:31.930Z,7.70
2018-09-11T01:10:31.919Z,8.00
2018-09-11T01:11:31.910Z,6.90
2018-09-11T01:12:31.902Z,7.60
2018-09-11T01:13:31.884Z,7.10
2018-09-11T01:14:31.920Z,7.90
2018-09-11T01:15:31.868Z,9.30
2018-09-11T01:16:31.850Z,7.70
2018-09-11T01:17:31.837Z,7.40
2018-09-11T01:18:31.845Z,8.40
2018-09-11T01:19:31.866Z,7.50
2018-09-11T01:20:31.813Z,8.20
2018-09-11T01:21:31.797Z,8.30
2018-09-11T01:22:31.787Z,7.70
2018-09-11T01:23:31.774Z,7.50
2018-09-11T01:24:31.805Z,7.90
2018-09-11T01:25:31.756Z,6.10
2018-09-11T01:26:31.736Z,7.00
2018-09-11T01:27:31.726Z,7.50
2018-09-11T01:28:31.715Z,7.50
2018-09-11T01:29:31.754Z,7.10
2018-09-11T01:30:31.693Z,6.40
2018-09-11T01:31:31.682Z,7.10
2018-09-11T01:32:31.668Z,8.00
2018-09-11T01:33:31.661Z,7.70
2018-09-11T01:34:31.693Z,6.50
2018-09-11T01:35:31.641Z,8.40
2018-09-11T01:36:31.625Z,7.40
2018-09-11T01:37:31.613Z,7.60
2018-09-11T01:38:31.602Z,7.90
2018-09-11T01:39:31.635Z,5.90
2018-09-11T01:40:31.594Z,8.30
2018-09-11T01:41:31.572Z,6.60
2018-09-11T01:42:31.558Z,8.40
2018-09-11T01:43:31.579Z,6.40
2018-09-11T01:44:31.579Z,7.80
2018-09-11T01:45:31.524Z,7.00
2018-09-11T01:46:31.512Z,7.80
2018-09-11T01:47:31.502Z,7.20
2018-09-11T01:48:31.494Z,7.50
2018-09-11T01:49:31.659Z,6.90
2018-09-11T01:50:31.470Z,7.70
2018-09-11T01:51:31.456Z,6.80
2018-09-11T01:52:31.445Z,6.90
2018-09-11T01:53:31.434Z,7.70
2018-09-11T01:54:31.472Z,7.20
2018-09-11T01:55:31.412Z,8.60
2018-09-11T01:56:31.400Z,7.40
2018-09-11T01:57:31.389Z,5.50
2018-09-11T01:58:31.379Z,8.30
2018-09-11T01:59:31.414Z,6.40
2018-09-11T02:00:31.379Z,6.70
2018-09-11T02:01:31.344Z,7.10
2018-09-11T02:02:31.332Z,8.00
2018-09-11T02:03:31.322Z,6.30
2018-09-11T02:04:31.357Z,7.00
2018-09-11T02:05:31.298Z,7.10
2018-09-11T02:06:31.289Z,7.10
2018-09-11T02:07:31.276Z,7.30
2018-09-11T02:08:31.266Z,7.70
2018-09-11T02:09:31.297Z,8.00
2018-09-11T02:10:31.241Z,7.50
2018-09-11T02:11:31.229Z,6.90
2018-09-11T02:12:31.219Z,7.30
2018-09-11T02:13:31.208Z,6.70
2018-09-11T02:14:31.240Z,7.00
2018-09-11T02:15:31.186Z,7.00
2018-09-11T02:16:31.182Z,6.70
2018-09-11T02:17:31.164Z,7.20
2018-09-11T02:18:31.150Z,6.40
2018-09-11T02:19:31.185Z,6.70
2018-09-11T02:20:31.128Z,7.20
2018-09-11T02:21:31.131Z,7.60
2018-09-11T02:22:31.106Z,6.20
2018-09-11T02:23:31.095Z,7.20
2018-09-11T02:24:31.142Z,8.30
2018-09-11T02:25:31.071Z,8.60
2018-09-11T02:26:31.060Z,6.60
2018-09-11T02:27:31.057Z,8.30
2018-09-11T02:28:31.037Z,8.70
2018-09-11T02:29:31.072Z,7.90
2018-09-11T02:30:31.020Z,7.60
2018-09-11T02:31:31.015Z,9.20
2018-09-11T02:32:30.993Z,7.50
2018-09-11T02:33:30.987Z,8.50
2018-09-11T02:34:31.016Z,8.70
2018-09-11T02:35:30.959Z,9.00
2018-09-11T02:36:30.950Z,8.40
2018-09-11T02:37:30.939Z,7.50
2018-09-11T02:38:30.928Z,7.20
2018-09-11T02:39:30.960Z,8.80
2018-09-11T02:40:30.902Z,6.70
2018-09-11T02:41:30.894Z,6.50
2018-09-11T02:42:30.883Z,8.50
2018-09-11T02:43:30.870Z,7.30
2018-09-11T02:44:30.902Z,8.20
2018-09-11T02:45:30.847Z,6.50
2018-09-11T02:46:30.834Z,8.10
2018-09-11T02:47:30.826Z,9.10
2018-09-11T02:48:30.815Z,7.70
2018-09-11T02:49:30.849Z,7.00
2018-09-11T02:50:30.789Z,7.10
2018-09-11T02:51:30.791Z,7.50
2018-09-11T02:52:30.766Z,7.50
2018-09-11T02:53:30.764Z,7.10
2018-09-11T02:54:30.789Z,7.30
2018-09-11T02:55:30.737Z,9.10
2018-09-11T02:56:30.721Z,7.90
2018-09-11T02:57:30.713Z,7.00
2018-09-11T02:58:30.699Z,7.70
2018-09-11T02:59:30.732Z,8.40
2018-09-11T03:00:30.680Z,7.50
2018-09-11T03:01:30.678Z,6.30
2018-09-11T03:02:30.654Z,8.30
2018-09-11T03:03:30.645Z,6.80
2018-09-11T03:04:30.677Z,7.20
2018-09-11T03:05:30.620Z,6.60
2018-09-11T03:06:30.607Z,7.10
2018-09-11T03:07:30.597Z,6.20
2018-09-11T03:08:30.591Z,6.60
2018-09-11T03:09:30.621Z,8.70
2018-09-11T03:10:30.562Z,8.20
2018-09-11T03:11:30.554Z,6.80
2018-09-11T03:12:30.540Z,9.30
2018-09-11T03:13:30.554Z,8.40
2018-09-11T03:14:30.563Z,7.10
2018-09-11T03:15:30.506Z,8.30
2018-09-11T03:16:30.498Z,7.50
2018-09-11T03:17:30.484Z,6.90
2018-09-11T03:18:30.474Z,8.10
2018-09-11T03:19:30.510Z,8.80
2018-09-11T03:20:30.452Z,7.80
2018-09-11T03:21:30.438Z,6.40
2018-09-11T03:22:30.428Z,8.70
2018-09-11T03:23:30.417Z,8.80
2018-09-11T03:24:30.454Z,7.70
2018-09-11T03:25:30.393Z,8.40
2018-09-11T03:26:30.387Z,8.90
2018-09-11T03:27:30.372Z,9.40
2018-09-11T03:28:30.360Z,9.40
2018-09-11T03:29:30.348Z,8.80
2018-09-11T03:30:30.383Z,10.60
2018-09-11T03:31:30.326Z,9.30
2018-09-11T03:32:30.318Z,9.60
2018-09-11T03:33:30.302Z,9.10
2018-09-11T03:34:30.292Z,8.20
2018-09-11T03:35:30.327Z,10.40
2018-09-11T03:36:30.270Z,10.40
2018-09-11T03:37:30.256Z,9.30
2018-09-11T03:38:30.246Z,9.30
2018-09-11T03:39:30.234Z,10.10
2018-09-11T03:40:30.273Z,8.80
2018-09-11T03:41:30.217Z,9.70
2018-09-11T03:42:30.202Z,9.40
2018-09-11T03:43:30.191Z,11.20
2018-09-11T03:44:30.181Z,11.30
2018-09-11T03:45:30.215Z,9.10
2018-09-11T03:46:30.176Z,9.60
2018-09-11T03:47:30.150Z,9.20
2018-09-11T03:48:30.134Z,10.60
2018-09-11T03:49:30.122Z,10.60
2018-09-11T03:50:30.173Z,11.60
2018-09-11T03:51:30.103Z,11.30
2018-09-11T03:52:30.090Z,9.80
2018-09-11T03:53:30.078Z,10.60
2018-09-11T03:54:30.064Z,10.10
2018-09-11T03:55:30.105Z,10.90
2018-09-11T03:56:30.043Z,10.90
2018-09-11T03:57:30.034Z,10.50
2018-09-11T03:58:30.025Z,9.50
2018-09-11T03:59:30.015Z,10.10
2018-09-11T04:00:30.044Z,9.50
2018-09-11T04:01:29.989Z,9.30
2018-09-11T04:02:29.977Z,9.80
2018-09-11T04:03:29.961Z,12.10
2018-09-11T04:04:29.953Z,11.10
2018-09-11T04:05:30.069Z,11.20
2018-09-11T04:06:29.927Z,9.50
2018-09-11T04:07:29.921Z,10.80
2018-09-11T04:08:29.903Z,10.00
2018-09-11T04:09:29.894Z,10.70
2018-09-11T04:10:29.927Z,11.90
2018-09-11T04:11:29.871Z,10.90
2018-09-11T04:12:29.860Z,9.40
2018-09-11T04:13:29.847Z,10.80
2018-09-11T04:14:29.835Z,9.70
2018-09-11T04:15:29.872Z,10.30
2018-09-11T04:16:29.811Z,12.60
2018-09-11T04:17:29.803Z,10.40
2018-09-11T04:18:29.793Z,11.60
2018-09-11T04:19:29.778Z,11.30
2018-09-11T04:20:29.813Z,10.20
2018-09-11T04:21:29.754Z,11.60
2018-09-11T04:22:29.742Z,11.30
2018-09-11T04:23:29.743Z,11.10
2018-09-11T04:24:29.721Z,12.60
2018-09-11T04:25:29.800Z,13.20
2018-09-11T04:26:29.700Z,14.40
2018-09-11T04:27:29.694Z,11.10
2018-09-11T04:28:29.676Z,13.70
2018-09-11T04:29:29.669Z,12.20
2018-09-11T04:30:29.697Z,11.30
2018-09-11T04:31:29.642Z,11.60
2018-09-11T04:32:29.629Z,13.60
2018-09-11T04:33:29.622Z,13.10
2018-09-11T04:34:29.607Z,12.70
2018-09-11T04:35:29.645Z,10.90
2018-09-11T04:36:29.654Z,10.80
2018-09-11T04:37:29.574Z,11.20
2018-09-11T04:38:29.560Z,13.00
2018-09-11T04:39:29.549Z,14.90
2018-09-11T04:40:29.584Z,18.40
2018-09-11T04:41:29.526Z,22.20
2018-09-11T04:42:29.523Z,12.60
2018-09-11T04:43:29.503Z,11.70
2018-09-11T04:44:29.492Z,14.00
2018-09-11T04:45:29.529Z,16.30
2018-09-11T04:46:29.470Z,12.80
2018-09-11T04:47:29.459Z,12.30
2018-09-11T04:48:29.448Z,12.80
2018-09-11T04:49:29.440Z,12.80
2018-09-11T04:50:29.424Z,13.00
2018-09-11T04:51:29.457Z,13.50
2018-09-11T04:52:29.401Z,12.70
2018-09-11T04:53:29.397Z,11.80
2018-09-11T04:54:29.380Z,10.80
2018-09-11T04:55:29.369Z,12.40
2018-09-11T04:56:29.402Z,13.90
2018-09-11T04:57:29.350Z,14.00
2018-09-11T04:58:29.351Z,13.60
2018-09-11T04:59:29.325Z,13.20
2018-09-11T05:00:29.309Z,13.20
2018-09-11T05:01:29.352Z,12.80
2018-09-11T05:02:29.289Z,12.60
2018-09-11T05:03:29.280Z,13.90
2018-09-11T05:04:29.269Z,15.50
2018-09-11T05:05:29.292Z,15.20
2018-09-11T05:06:29.294Z,16.00
2018-09-11T05:07:29.239Z,16.00
2018-09-11T05:08:29.221Z,17.80
2018-09-11T05:09:29.216Z,17.30
2018-09-11T05:10:29.203Z,16.40
2018-09-11T05:11:29.238Z,15.70
2018-09-11T05:12:29.177Z,16.70
2018-09-11T05:13:29.167Z,17.90
2018-09-11T05:14:29.157Z,17.30
2018-09-11T05:15:29.146Z,16.20
2018-09-11T05:16:29.177Z,19.40
2018-09-11T05:17:29.122Z,21.60
2018-09-11T05:18:29.110Z,23.60
2018-09-11T05:19:29.100Z,22.20
2018-09-11T05:20:29.095Z,21.40
2018-09-11T05:21:29.128Z,20.90
2018-09-11T05:22:29.065Z,21.10
2018-09-11T05:23:29.055Z,20.00
2018-09-11T05:24:29.047Z,19.40
2018-09-11T05:25:29.033Z,19.20
2018-09-11T05:26:29.084Z,17.90
2018-09-11T05:27:29.146Z,18.50
2018-09-11T05:28:29.001Z,17.00
2018-09-11T05:29:28.989Z,20.30
2018-09-11T05:30:28.979Z,20.30
2018-09-11T05:31:29.015Z,20.60
2018-09-11T05:32:28.964Z,18.30
2018-09-11T05:33:28.944Z,18.10
2018-09-11T05:34:28.931Z,18.40
2018-09-11T05:35:28.921Z,16.90
2018-09-11T05:36:28.962Z,18.60
2018-09-11T05:37:28.902Z,16.70
2018-09-11T05:38:28.888Z,17.70
2018-09-11T05:39:28.875Z,18.50
2018-09-11T05:40:28.866Z,18.10
2018-09-11T05:41:28.907Z,18.00
2018-09-11T05:42:28.844Z,21.10
2018-09-11T05:43:28.835Z,17.20
2018-09-11T05:44:28.821Z,17.00
2018-09-11T05:45:28.809Z,15.70
2018-09-11T05:46:28.798Z,17.30
2018-09-11T05:47:28.834Z,19.60
2018-09-11T05:48:28.777Z,19.80
2018-09-11T05:49:28.767Z,18.40
2018-09-11T05:50:28.754Z,19.70
2018-09-11T05:51:28.744Z,16.70
2018-09-11T05:52:28.775Z,19.00
2018-09-11T05:53:28.720Z,20.50
2018-09-11T05:54:28.713Z,18.50
2018-09-11T05:55:28.705Z,17.00
2018-09-11T05:56:28.690Z,19.80
2018-09-11T05:57:28.723Z,18.70
2018-09-11T05:58:28.724Z,21.00
2018-09-11T05:59:28.656Z,18.90
2018-09-11T06:00:28.640Z,20.30
2018-09-11T06:01:28.630Z,18.30
2018-09-11T06:02:28.668Z,17.40
2018-09-11T06:03:28.613Z,19.10
2018-09-11T06:04:28.603Z,20.10
2018-09-11T06:05:28.615Z,21.60
2018-09-11T06:06:28.573Z,22.70
2018-09-11T06:07:28.611Z,20.30
2018-09-11T06:08:28.553Z,23.60
2018-09-11T06:09:28.540Z,23.20
2018-09-11T06:10:28.531Z,19.40
2018-09-11T06:11:28.532Z,18.70
2018-09-11T06:12:28.553Z,21.30
2018-09-11T06:13:28.494Z,22.40
2018-09-11T06:14:28.485Z,21.20
2018-09-11T06:15:28.474Z,18.40
2018-09-11T06:16:28.464Z,18.40
2018-09-11T06:17:28.501Z,19.50
2018-09-11T06:18:28.437Z,19.40
2018-09-11T06:19:28.427Z,21.00
2018-09-11T06:20:28.418Z,22.10
2018-09-11T06:21:28.404Z,22.10
2018-09-11T06:22:28.441Z,21.60
2018-09-11T06:23:28.387Z,22.70
2018-09-11T06:24:28.370Z,21.00
2018-09-11T06:25:28.361Z,22.30
2018-09-11T06:26:28.348Z,23.40
2018-09-11T06:27:30.212Z,22.00
2018-09-11T06:28:28.333Z,23.10
2018-09-11T06:29:28.315Z,23.00
2018-09-11T06:30:28.304Z,22.80
2018-09-11T06:31:28.337Z,25.20
2018-09-11T06:32:28.288Z,25.20
2018-09-11T06:33:28.312Z,24.60
2018-09-11T06:34:28.261Z,26.90
2018-09-11T06:35:28.301Z,23.10
2018-09-11T06:36:28.235Z,25.10
2018-09-11T06:37:28.222Z,22.90
2018-09-11T06:38:28.269Z,25.00
2018-09-11T06:39:28.206Z,26.90
2018-09-11T06:40:28.187Z,25.00
2018-09-11T06:41:28.176Z,24.60
2018-09-11T06:42:28.170Z,25.70
2018-09-11T06:43:28.153Z,24.30
2018-09-11T06:44:28.187Z,24.60
2018-09-11T06:45:28.130Z,23.70
2018-09-11T06:46:28.119Z,25.20
2018-09-11T06:47:28.111Z,23.30
2018-09-11T06:48:28.099Z,20.40
2018-09-11T06:49:28.133Z,23.50
2018-09-11T06:50:28.074Z,23.90
2018-09-11T06:51:28.064Z,24.80
2018-09-11T06:52:28.053Z,25.20
2018-09-11T06:53:28.040Z,23.90
2018-09-11T06:54:28.075Z,25.60
2018-09-11T06:55:28.017Z,24.30
2018-09-11T06:56:28.007Z,23.30
2018-09-11T06:57:27.996Z,22.40
2018-09-11T06:58:27.984Z,27.10
2018-09-11T06:59:28.027Z,19.80
2018-09-11T07:00:28.005Z,19.40
2018-09-11T07:01:27.949Z,20.20
2018-09-11T07:02:27.962Z,22.00
2018-09-11T07:03:27.927Z,20.80
2018-09-11T07:04:27.965Z,18.90
2018-09-11T07:05:27.924Z,22.00
2018-09-11T07:06:27.914Z,20.20
2018-09-11T07:07:27.884Z,19.90
2018-09-11T07:08:27.895Z,18.00
2018-09-11T07:09:27.904Z,16.90
2018-09-11T07:10:27.847Z,18.90
2018-09-11T07:11:27.837Z,16.40
2018-09-11T07:12:27.824Z,14.70
2018-09-11T07:13:27.814Z,18.80
2018-09-11T07:14:27.891Z,17.60
2018-09-11T07:15:27.788Z,15.10
2018-09-11T07:16:27.786Z,16.00
2018-09-11T07:17:27.768Z,15.70
2018-09-11T07:18:27.756Z,16.20
2018-09-11T07:19:27.873Z,17.20
2018-09-11T07:20:27.910Z,15.20
2018-09-11T07:21:27.722Z,16.90
2018-09-11T07:22:27.711Z,17.30
2018-09-11T07:23:27.699Z,15.70
2018-09-11T07:24:27.736Z,17.00
2018-09-11T07:25:27.680Z,15.70
2018-09-11T07:26:27.666Z,14.20
2018-09-11T07:27:27.700Z,13.40
2018-09-11T07:28:27.650Z,14.80
2018-09-11T07:29:27.631Z,16.10
2018-09-11T07:30:27.741Z,11.90
2018-09-11T07:31:27.699Z,14.80
2018-09-11T07:32:27.627Z,13.00
2018-09-11T07:33:27.593Z,13.90
2018-09-11T07:34:27.597Z,13.20
2018-09-11T07:35:27.610Z,13.80
2018-09-11T07:36:27.596Z,11.80
2018-09-11T07:37:27.546Z,12.30
2018-09-11T07:38:27.532Z,11.90
2018-09-11T07:39:27.520Z,11.50
2018-09-11T07:40:27.560Z,14.00
2018-09-11T07:41:27.499Z,14.00
2018-09-11T07:42:27.488Z,15.50
2018-09-11T07:43:27.475Z,18.40
2018-09-11T07:44:27.464Z,21.80
2018-09-11T07:45:27.513Z,19.00
2018-09-11T07:46:27.443Z,16.80
2018-09-11T07:47:27.429Z,19.10
2018-09-11T07:48:27.417Z,20.70
2018-09-11T07:49:27.407Z,17.70
2018-09-11T07:50:27.451Z,19.10
2018-09-11T07:51:27.386Z,19.30
2018-09-11T07:52:27.386Z,21.50
2018-09-11T07:53:27.361Z,21.30
2018-09-11T07:54:27.349Z,18.00
2018-09-11T07:55:27.341Z,20.20
2018-09-11T07:56:27.373Z,21.70
2018-09-11T07:57:27.326Z,18.50
2018-09-11T07:58:27.308Z,19.20
2018-09-11T07:59:27.297Z,18.40
2018-09-11T08:00:27.283Z,20.70
2018-09-11T08:01:27.316Z,20.10
2018-09-11T08:02:27.268Z,20.30
2018-09-11T08:03:27.259Z,19.60
2018-09-11T08:04:27.245Z,21.60
2018-09-11T08:05:27.228Z,20.00
2018-09-11T08:06:27.273Z,19.70
2018-09-11T08:07:27.204Z,20.50
2018-09-11T08:08:27.194Z,22.50
2018-09-11T08:09:27.235Z,20.10
2018-09-11T08:10:27.170Z,21.90
2018-09-11T08:11:27.205Z,20.60
2018-09-11T08:12:27.150Z,17.80
2018-09-11T08:13:27.138Z,17.40
2018-09-11T08:14:27.127Z,16.90
2018-09-11T08:15:27.116Z,18.10
2018-09-11T08:16:27.161Z,16.40
2018-09-11T08:17:27.092Z,16.70
2018-09-11T08:18:27.081Z,17.30
2018-09-11T08:19:27.073Z,15.50
2018-09-11T08:20:27.058Z,14.80
2018-09-11T08:21:27.090Z,16.00
2018-09-11T08:22:27.036Z,13.90
2018-09-11T08:23:27.025Z,13.80
2018-09-11T08:24:27.018Z,13.70
2018-09-11T08:25:27.002Z,15.50
2018-09-11T08:26:27.036Z,12.30
2018-09-11T08:27:26.978Z,18.70
2018-09-11T08:28:26.976Z,14.30
2018-09-11T08:29:27.022Z,14.50
2018-09-11T08:30:26.951Z,14.00
2018-09-11T08:31:26.980Z,14.60
2018-09-11T08:32:26.920Z,13.60
2018-09-11T08:33:26.907Z,13.20
2018-09-11T08:34:26.896Z,10.80
2018-09-11T08:35:26.886Z,8.90
2018-09-11T08:36:26.924Z,7.60
2018-09-11T08:37:26.867Z,9.40
2018-09-11T08:38:26.903Z,7.30
2018-09-11T08:39:26.843Z,7.90
2018-09-11T08:40:26.831Z,8.40
2018-09-11T08:41:26.864Z,8.70
2018-09-11T08:42:26.805Z,8.60
2018-09-11T08:43:26.798Z,7.90
2018-09-11T08:44:26.790Z,7.10
2018-09-11T08:45:26.773Z,7.60
2018-09-11T08:46:26.806Z,7.60
2018-09-11T08:47:26.749Z,6.70
2018-09-11T08:48:26.742Z,7.20
2018-09-11T08:49:26.730Z,6.70
2018-09-11T08:50:26.736Z,6.70
2018-09-11T08:51:26.749Z,6.20
2018-09-11T08:52:26.747Z,6.70
2018-09-11T08:53:26.680Z,7.20
2018-09-11T08:54:26.672Z,8.00
2018-09-11T08:55:26.658Z,6.60
2018-09-11T08:56:26.738Z,7.10
2018-09-11T08:57:26.637Z,5.40
2018-09-11T08:58:26.668Z,6.60
2018-09-11T08:59:26.632Z,6.40
2018-09-11T09:00:26.604Z,5.10
2018-09-11T09:01:26.636Z,5.40
2018-09-11T09:02:26.582Z,7.10
2018-09-11T09:03:26.570Z,5.30
2018-09-11T09:04:26.557Z,6.40
2018-09-11T09:05:26.546Z,7.70
2018-09-11T09:06:26.589Z,7.00
2018-09-11T09:07:26.525Z,5.20
2018-09-11T09:08:26.514Z,4.80
2018-09-11T09:09:26.506Z,4.00
2018-09-11T09:10:26.490Z,6.30
2018-09-11T09:11:26.479Z,4.30
2018-09-11T09:12:26.513Z,5.20
2018-09-11T09:13:26.472Z,4.40
2018-09-11T09:14:26.447Z,4.90
2018-09-11T09:15:26.450Z,4.50
2018-09-11T09:16:26.424Z,5.50
2018-09-11T09:17:26.462Z,6.90
2018-09-11T09:18:26.402Z,5.10
2018-09-11T09:19:26.392Z,5.10
2018-09-11T09:20:26.380Z,3.70
2018-09-11T09:21:26.367Z,6.70
2018-09-11T09:22:26.408Z,5.50
2018-09-11T09:23:26.347Z,4.60
2018-09-11T09:24:26.338Z,3.90
2018-09-11T09:25:26.323Z,4.30
2018-09-11T09:26:26.312Z,5.20
2018-09-11T09:27:26.379Z,4.80
2018-09-11T09:28:26.288Z,4.10
2018-09-11T09:29:26.278Z,4.00
2018-09-11T09:30:26.267Z,6.90
2018-09-11T09:31:26.255Z,4.30
2018-09-11T09:32:26.291Z,5.80
2018-09-11T09:33:26.233Z,5.20
2018-09-11T09:34:26.225Z,5.60
2018-09-11T09:35:26.232Z,4.80
2018-09-11T09:36:26.206Z,6.50
2018-09-11T09:37:26.238Z,5.00
2018-09-11T09:38:26.176Z,4.80
2018-09-11T09:39:26.166Z,4.20
2018-09-11T09:40:26.164Z,4.00
2018-09-11T09:41:26.144Z,3.80
2018-09-11T09:42:26.180Z,4.40
2018-09-11T09:43:26.132Z,4.30
2018-09-11T09:44:26.109Z,5.00
2018-09-11T09:45:26.101Z,5.80
2018-09-11T09:46:26.091Z,4.30
2018-09-11T09:47:26.120Z,5.50
2018-09-11T09:48:26.064Z,4.70
2018-09-11T09:49:26.054Z,5.50
2018-09-11T09:50:26.066Z,5.40
2018-09-11T09:51:26.043Z,3.60
2018-09-11T09:52:26.065Z,4.50
2018-09-11T09:53:26.008Z,4.80
2018-09-11T09:54:25.999Z,6.10
2018-09-11T09:55:25.990Z,4.10
2018-09-11T09:56:26.022Z,4.10
2018-09-11T09:57:26.014Z,4.70
2018-09-11T09:58:25.953Z,5.40
2018-09-11T09:59:25.941Z,4.30
2018-09-11T10:00:25.935Z,6.60
2018-09-11T10:01:25.920Z,4.80
2018-09-11T10:02:25.960Z,3.80
2018-09-11T10:03:25.900Z,4.00
2018-09-11T10:04:25.886Z,5.60
2018-09-11T10:05:25.878Z,4.10
2018-09-11T10:06:25.865Z,5.20
2018-09-11T10:07:25.899Z,5.10
2018-09-11T10:08:25.846Z,4.40
2018-09-11T10:09:25.833Z,4.40
2018-09-11T10:10:25.825Z,5.20
2018-09-11T10:11:25.812Z,4.00
2018-09-11T10:12:25.842Z,4.20
2018-09-11T10:13:25.787Z,4.20
2018-09-11T10:14:25.782Z,4.20
2018-09-11T10:15:25.766Z,3.80
2018-09-11T10:16:25.755Z,4.20
2018-09-11T10:17:25.843Z,4.20
2018-09-11T10:18:25.732Z,3.40
2018-09-11T10:19:25.740Z,3.70
2018-09-11T10:20:25.713Z,3.20
2018-09-11T10:21:25.699Z,4.40
2018-09-11T10:22:25.739Z,3.40
2018-09-11T10:23:25.676Z,3.90
2018-09-11T10:24:25.666Z,4.40
2018-09-11T10:25:25.679Z,4.60
2018-09-11T10:26:25.641Z,3.50
2018-09-11T10:27:25.688Z,5.00
2018-09-11T10:28:25.619Z,4.60
2018-09-11T10:29:25.610Z,4.20
2018-09-11T10:30:25.599Z,3.10
2018-09-11T10:31:25.586Z,5.60
2018-09-11T10:32:25.619Z,4.00
2018-09-11T10:33:25.564Z,6.10
2018-09-11T10:34:25.564Z,4.90
2018-09-11T10:35:25.544Z,4.70
2018-09-11T10:36:25.530Z,3.50
2018-09-11T10:37:25.566Z,4.90
2018-09-11T10:38:25.507Z,4.30
2018-09-11T10:39:25.525Z,3.60
2018-09-11T10:40:25.485Z,3.90
2018-09-11T10:41:25.481Z,4.70
2018-09-11T10:42:25.509Z,4.30
2018-09-11T10:43:25.451Z,4.00
2018-09-11T10:44:25.438Z,5.30
2018-09-11T10:45:25.428Z,5.50
2018-09-11T10:46:25.423Z,4.90
2018-09-11T10:47:25.453Z,4.50
2018-09-11T10:48:25.398Z,3.40
2018-09-11T10:49:25.385Z,3.70
2018-09-11T10:50:25.376Z,3.20
2018-09-11T10:51:25.363Z,4.30
2018-09-11T10:52:25.396Z,4.80
2018-09-11T10:53:25.340Z,4.50
2018-09-11T10:54:25.331Z,4.30
2018-09-11T10:55:25.318Z,3.60
2018-09-11T10:56:25.309Z,3.50
2018-09-11T10:57:25.345Z,3.80
2018-09-11T10:58:25.326Z,4.40
2018-09-11T10:59:25.275Z,7.90
2018-09-11T11:00:25.267Z,4.20
2018-09-11T11:01:25.256Z,4.30
2018-09-11T11:02:25.303Z,3.60
2018-09-11T11:03:25.233Z,4.50
2018-09-11T11:04:25.221Z,3.90
2018-09-11T11:05:25.212Z,4.00
2018-09-11T11:06:25.196Z,3.60
2018-09-11T11:07:25.184Z,3.30
2018-09-11T11:08:25.236Z,4.40
2018-09-11T11:09:25.165Z,3.30
2018-09-11T11:10:25.152Z,4.30
2018-09-11T11:11:25.141Z,3.50
2018-09-11T11:12:25.130Z,4.70
2018-09-11T11:13:25.167Z,3.60
2018-09-11T11:14:25.132Z,3.50
2018-09-11T11:15:25.098Z,4.20
2018-09-11T11:16:25.084Z,4.40
2018-09-11T11:17:25.078Z,5.10
2018-09-11T11:18:25.108Z,3.80
2018-09-11T11:19:25.054Z,4.80
2018-09-11T11:20:25.041Z,4.10
2018-09-11T11:21:25.031Z,3.20
2018-09-11T11:22:25.023Z,5.50
2018-09-11T11:23:25.053Z,3.80
2018-09-11T11:24:25.011Z,6.10
2018-09-11T11:25:24.988Z,3.40
2018-09-11T11:26:25.051Z,4.00
2018-09-11T11:27:24.967Z,3.40
2018-09-11T11:28:25.000Z,3.00
2018-09-11T11:29:24.941Z,2.70
2018-09-11T11:30:24.931Z,4.20
2018-09-11T11:31:24.923Z,4.00
2018-09-11T11:32:24.912Z,3.50
2018-09-11T11:33:24.946Z,3.20
2018-09-11T11:34:24.886Z,4.00
2018-09-11T11:35:24.875Z,2.90
2018-09-11T11:36:25.057Z,3.60
2018-09-11T11:37:25.026Z,3.30
2018-09-11T11:38:24.907Z,3.40
2018-09-11T11:39:24.831Z,4.80
2018-09-11T11:40:24.819Z,3.70
2018-09-11T11:41:24.812Z,2.70
2018-09-11T11:42:24.868Z,3.50
2018-09-11T11:43:24.831Z,4.20
2018-09-11T11:44:24.781Z,4.30
2018-09-11T11:45:24.766Z,3.60
2018-09-11T11:46:24.754Z,3.60
2018-09-11T11:47:24.741Z,4.40
2018-09-11T11:48:24.824Z,4.10
2018-09-11T11:49:24.724Z,2.60
2018-09-11T11:50:24.708Z,3.30
2018-09-11T11:51:24.730Z,4.10
2018-09-11T11:52:24.688Z,2.80
2018-09-11T11:53:24.719Z,3.70
2018-09-11T11:54:24.712Z,3.70
2018-09-11T11:55:24.721Z,3.60
2018-09-11T11:56:24.644Z,3.90
2018-09-11T11:57:24.631Z,3.80
2018-09-11T11:58:24.667Z,3.50
2018-09-11T11:59:24.610Z,4.90
2018-09-11T12:00:24.596Z,4.50
2018-09-11T12:01:24.603Z,4.50
2018-09-11T12:02:24.579Z,3.70
2018-09-11T12:03:24.611Z,3.40
2018-09-11T12:04:24.553Z,4.50
2018-09-11T12:05:24.541Z,3.60
2018-09-11T12:06:24.531Z,3.10
2018-09-11T12:07:24.519Z,5.40
2018-09-11T12:08:24.556Z,3.50
2018-09-11T12:09:24.497Z,3.50
2018-09-11T12:10:24.490Z,3.50
2018-09-11T12:11:24.478Z,3.30
2018-09-11T12:12:24.464Z,3.30
2018-09-11T12:13:24.502Z,3.00
2018-09-11T12:14:24.461Z,4.20
2018-09-11T12:15:24.432Z,3.00
2018-09-11T12:16:24.422Z,3.00
2018-09-11T12:17:24.411Z,2.70
2018-09-11T12:18:24.446Z,3.10
2018-09-11T12:19:24.395Z,3.70
2018-09-11T12:20:24.385Z,2.50
2018-09-11T12:21:24.367Z,2.70
2018-09-11T12:22:24.364Z,2.80
2018-09-11T12:23:24.395Z,3.30
2018-09-11T12:24:24.337Z,4.60
2018-09-11T12:25:24.390Z,3.00
2018-09-11T12:26:24.404Z,3.50
2018-09-11T12:27:24.309Z,2.80
2018-09-11T12:28:24.345Z,3.10
2018-09-11T12:29:24.284Z,4.00
2018-09-11T12:30:24.276Z,2.80
2018-09-11T12:31:24.267Z,3.40
2018-09-11T12:32:24.251Z,3.30
2018-09-11T12:33:24.292Z,2.80
2018-09-11T12:34:24.231Z,4.40
2018-09-11T12:35:24.222Z,2.60
2018-09-11T12:36:24.213Z,3.20
2018-09-11T12:37:24.202Z,2.60
2018-09-11T12:38:24.252Z,4.20
2018-09-11T12:39:24.185Z,3.40
2018-09-11T12:40:24.168Z,4.30
2018-09-11T12:41:24.159Z,3.00
2018-09-11T12:42:24.149Z,2.90
2018-09-11T12:43:24.137Z,4.00
2018-09-11T12:44:24.173Z,3.40
2018-09-11T12:45:24.120Z,2.80
2018-09-11T12:46:24.472Z,2.80
2018-09-11T12:47:24.368Z,3.10
2018-09-11T12:48:24.241Z,3.10
2018-09-11T12:49:24.125Z,3.70
2018-09-11T12:50:24.063Z,3.90
2018-09-11T12:51:24.052Z,3.80
2018-09-11T12:52:24.073Z,3.20
2018-09-11T12:53:24.035Z,3.80
2018-09-11T12:54:24.068Z,4.20
2018-09-11T12:55:24.010Z,2.40
2018-09-11T12:56:23.998Z,3.90
2018-09-11T12:57:23.989Z,3.50
2018-09-11T12:58:23.979Z,3.30
2018-09-11T12:59:24.011Z,3.10
2018-09-11T13:00:23.957Z,4.10
2018-09-11T13:01:23.943Z,4.20
2018-09-11T13:02:24.000Z,4.20
2018-09-11T13:03:23.923Z,3.20
2018-09-11T13:04:23.958Z,4.00
2018-09-11T13:05:23.900Z,3.20
2018-09-11T13:06:23.893Z,2.70
2018-09-11T13:07:23.882Z,2.90
2018-09-11T13:08:23.867Z,3.50
2018-09-11T13:09:23.959Z,3.20
2018-09-11T13:10:23.853Z,3.10
2018-09-11T13:11:23.839Z,5.00
2018-09-11T13:12:23.826Z,5.30
2018-09-11T13:13:23.822Z,4.00
2018-09-11T13:14:23.847Z,4.20
2018-09-11T13:15:23.791Z,4.20
2018-09-11T13:16:23.784Z,3.80
2018-09-11T13:17:23.770Z,4.70
2018-09-11T13:18:23.767Z,3.70
2018-09-11T13:19:23.794Z,4.00
2018-09-11T13:20:23.738Z,4.10
2018-09-11T13:21:23.727Z,4.60
2018-09-11T13:22:23.714Z,5.50
2018-09-11T13:23:23.703Z,4.70
2018-09-11T13:24:23.741Z,5.00
2018-09-11T13:25:23.787Z,4.40
2018-09-11T13:26:23.670Z,4.30
2018-09-11T13:27:23.661Z,3.60
2018-09-11T13:28:23.648Z,4.20
2018-09-11T13:29:23.685Z,3.60
2018-09-11T13:30:23.628Z,4.10
2018-09-11T13:31:23.616Z,3.60
2018-09-11T13:32:23.607Z,4.00
2018-09-11T13:33:23.592Z,3.10
2018-09-11T13:34:23.628Z,3.20
2018-09-11T13:35:23.582Z,3.60
2018-09-11T13:36:23.576Z,4.50
2018-09-11T13:37:23.549Z,3.10
2018-09-11T13:38:23.566Z,4.50
2018-09-11T13:39:23.576Z,5.60
2018-09-11T13:40:23.515Z,3.80
2018-09-11T13:41:23.515Z,4.20
2018-09-11T13:42:23.499Z,4.90
2018-09-11T13:43:23.493Z,4.10
2018-09-11T13:44:23.530Z,4.60
2018-09-11T13:45:23.573Z,2.80
2018-09-11T13:46:23.464Z,3.10
2018-09-11T13:47:23.597Z,3.30
2018-09-11T13:48:23.465Z,4.30
2018-09-11T13:49:23.468Z,5.40
2018-09-11T13:50:23.421Z,4.00
2018-09-11T13:51:23.393Z,3.30
2018-09-11T13:52:23.383Z,3.60
2018-09-11T13:53:23.375Z,4.30
2018-09-11T13:54:23.478Z,3.60
2018-09-11T13:55:23.356Z,3.20
2018-09-11T13:56:23.356Z,4.80
2018-09-11T13:57:23.338Z,4.00
2018-09-11T13:58:23.318Z,3.80
2018-09-11T13:59:23.351Z,4.20
2018-09-11T14:00:23.296Z,4.80
2018-09-11T14:01:23.283Z,4.40
2018-09-11T14:02:23.275Z,5.40
2018-09-11T14:03:23.262Z,3.00
2018-09-11T14:04:23.308Z,4.70
2018-09-11T14:05:23.246Z,3.30
2018-09-11T14:06:23.228Z,3.60
2018-09-11T14:07:23.268Z,3.30
2018-09-11T14:08:23.260Z,3.50